Wetterdaten: Woche 18.07.05 - 24.07.05 (KW29)
Datum Zeit Temperatur Luftfeuchte Luftdruck Niederschlag Wind Richtung Sonne Solar Taupunkt Windchill
18.07.2005 00:00 18.6 C 75 % 1012.6 hPa 0.0 l/m 0.4 km/h (0 Bft) O-SO 0.00 h 0 W/m 14.1 C 18.6 C
18.07.2005 01:00 19.1 C 79 % 1013.2 hPa 0.0 l/m 5.5 km/h (1 Bft) O-SO 0.00 h 0 W/m 15.3 C 19.1 C
18.07.2005 02:00 19.1 C 78 % 1011.6 hPa 0.0 l/m 6.2 km/h (2 Bft) O-SO 0.00 h 0 W/m 15.1 C 19.1 C
18.07.2005 03:00 19.0 C 79 % 1011.7 hPa 0.0 l/m 1.6 km/h (1 Bft) O 0.00 h 0 W/m 15.2 C 19.0 C
18.07.2005 04:00 17.6 C 91 % 1011.1 hPa 0.0 l/m 2.0 km/h (1 Bft) O-SO 0.00 h 0 W/m 16.1 C 17.6 C
18.07.2005 05:00 17.4 C 92 % 1011.0 hPa 0.0 l/m 0.5 km/h (0 Bft) NO 0.00 h 5 W/m 16.0 C 17.4 C
18.07.2005 06:00 17.4 C 90 % 1010.3 hPa 0.0 l/m 1.6 km/h (1 Bft) W-NW 0.20 h 30 W/m 15.7 C 17.4 C
18.07.2005 07:00 17.4 C 92 % 1010.7 hPa 1.0 l/m 5.5 km/h (1 Bft) O-SO 0.33 h 98 W/m 16.0 C 17.4 C
18.07.2005 08:00 18.5 C 86 % 1010.8 hPa 0.0 l/m 0.1 km/h (0 Bft) N 1.00 h 287 W/m 16.1 C 18.5 C
18.07.2005 09:00 20.2 C 78 % 1010.6 hPa 0.0 l/m 0.3 km/h (0 Bft) NO 1.00 h 460 W/m 16.1 C 20.2 C
18.07.2005 10:00 22.7 C 68 % 1010.0 hPa 0.0 l/m 3.1 km/h (1 Bft) O-SO 0.80 h 505 W/m 16.5 C 22.7 C
18.07.2005 11:00 24.7 C 60 % 1009.0 hPa 0.0 l/m 2.4 km/h (1 Bft) S-SW 0.90 h 639 W/m 16.4 C 24.7 C
18.07.2005 12:00 27.1 C 49 % 1008.2 hPa 0.0 l/m 12.6 km/h (3 Bft) W-NW 0.97 h 738 W/m 15.5 C 27.1 C
18.07.2005 13:00 28.0 C 44 % 1007.6 hPa 0.0 l/m 24.9 km/h (4 Bft) W-NW 0.90 h 711 W/m 14.7 C 28.0 C
18.07.2005 14:00 25.1 C 57 % 1008.4 hPa 3.9 l/m 23.4 km/h (4 Bft) NW 0.33 h 364 W/m 15.5 C 25.1 C
18.07.2005 15:00 23.4 C 69 % 1010.0 hPa 0.0 l/m 30.7 km/h (5 Bft) NW 0.53 h 345 W/m 17.4 C 23.4 C
18.07.2005 16:00 21.5 C 71 % 1010.4 hPa 0.0 l/m 18.0 km/h (3 Bft) W-NW 0.00 h 96 W/m 16.1 C 21.5 C
18.07.2005 17:00 19.3 C 88 % 1012.2 hPa 2.6 l/m 13.1 km/h (3 Bft) O-SO 0.00 h 9 W/m 17.1 C 19.3 C
18.07.2005 18:00 18.7 C 94 % 1011.9 hPa 0.0 l/m 2.5 km/h (1 Bft) SO 0.00 h 64 W/m 17.6 C 18.7 C
18.07.2005 19:00 18.7 C 93 % 1011.9 hPa 0.0 l/m 0.8 km/h (0 Bft) SO 0.00 h 71 W/m 17.5 C 18.7 C
18.07.2005 20:00 18.3 C 93 % 1011.9 hPa 0.0 l/m 1.8 km/h (1 Bft) SO 0.00 h 24 W/m 17.2 C 18.3 C
18.07.2005 21:00 18.0 C 94 % 1012.8 hPa 0.0 l/m 4.7 km/h (1 Bft) SO 0.00 h 4 W/m 17.0 C 18.0 C
18.07.2005 22:00 17.9 C 95 % 1013.0 hPa 0.0 l/m 8.5 km/h (2 Bft) SO 0.00 h 0 W/m 17.1 C 17.9 C
18.07.2005 23:00 17.9 C 96 % 1013.0 hPa 0.0 l/m 4.2 km/h (1 Bft) O-SO 0.00 h 0 W/m 17.2 C 17.9 C
19.07.2005 00:00 18.0 C 97 % 1013.7 hPa 1.6 l/m 1.3 km/h (1 Bft) O-SO 0.00 h 0 W/m 17.5 C 18.0 C
19.07.2005 01:00 17.3 C 97 % 1014.1 hPa 0.3 l/m 2.3 km/h (1 Bft) O-SO 0.00 h 0 W/m 16.9 C 17.3 C
19.07.2005 02:00 16.9 C 98 % 1014.6 hPa 14.6 l/m 3.9 km/h (1 Bft) SO 0.00 h 0 W/m 16.5 C 16.9 C
19.07.2005 03:00 16.7 C 99 % 1015.2 hPa 1.6 l/m 5.2 km/h (1 Bft) W-NW 0.00 h 0 W/m 16.6 C 16.7 C
19.07.2005 04:00 15.8 C 100 % 1015.4 hPa 0.0 l/m 0.5 km/h (0 Bft) SO 0.00 h 0 W/m 15.8 C 15.8 C
19.07.2005 05:00 14.9 C 100 % 1015.5 hPa 0.0 l/m 2.7 km/h (1 Bft) O-SO 0.00 h 4 W/m 14.9 C 14.9 C
19.07.2005 06:00 15.5 C 100 % 1015.7 hPa 1.0 l/m 6.2 km/h (2 Bft) O-SO 0.00 h 10 W/m 15.5 C 15.5 C
19.07.2005 07:00 16.1 C 99 % 1016.4 hPa 0.0 l/m 10.5 km/h (2 Bft) W-NW 0.00 h 40 W/m 16.0 C 16.1 C
19.07.2005 08:00 17.0 C 89 % 1016.4 hPa 0.0 l/m 15.0 km/h (3 Bft) W-NW 0.20 h 181 W/m 15.1 C 17.0 C
19.07.2005 09:00 18.1 C 78 % 1018.2 hPa 0.0 l/m 28.3 km/h (4 Bft) W-NW 0.67 h 412 W/m 14.2 C 18.1 C
19.07.2005 10:00 18.8 C 70 % 1018.1 hPa 0.0 l/m 28.4 km/h (4 Bft) NW 0.57 h 451 W/m 13.3 C 18.8 C
19.07.2005 11:00 20.5 C 60 % 1017.9 hPa 0.0 l/m 29.2 km/h (5 Bft) W-NW 0.97 h 780 W/m 12.5 C 20.5 C
19.07.2005 12:00 21.0 C 56 % 1018.1 hPa 0.0 l/m 29.7 km/h (5 Bft) W-NW 0.33 h 466 W/m 11.9 C 21.0 C
19.07.2005 13:00 20.2 C 63 % 1018.9 hPa 0.0 l/m 28.4 km/h (4 Bft) W-NW 0.50 h 503 W/m 12.9 C 20.2 C
19.07.2005 14:00 19.2 C 74 % 1020.1 hPa 0.3 l/m 24.2 km/h (4 Bft) W-NW 0.30 h 411 W/m 14.5 C 19.2 C
19.07.2005 15:00 20.0 C 62 % 1020.7 hPa 0.0 l/m 25.6 km/h (4 Bft) W-NW 0.90 h 810 W/m 12.4 C 20.0 C
19.07.2005 16:00 21.9 C 53 % 1019.8 hPa 0.0 l/m 27.8 km/h (4 Bft) W-NW 1.00 h 693 W/m 12.0 C 21.9 C
19.07.2005 17:00 22.5 C 52 % 1019.7 hPa 0.0 l/m 33.0 km/h (5 Bft) W-NW 1.00 h 574 W/m 12.1 C 22.5 C
19.07.2005 18:00 22.8 C 53 % 1019.8 hPa 0.0 l/m 29.9 km/h (5 Bft) W-NW 1.00 h 421 W/m 12.6 C 22.8 C
19.07.2005 19:00 22.0 C 54 % 1020.8 hPa 0.0 l/m 31.0 km/h (5 Bft) W-NW 1.00 h 269 W/m 12.2 C 22.0 C
19.07.2005 20:00 20.6 C 57 % 1021.4 hPa 0.0 l/m 20.4 km/h (4 Bft) W-NW 0.90 h 97 W/m 11.8 C 20.6 C
19.07.2005 21:00 18.6 C 65 % 1022.2 hPa 0.0 l/m 10.5 km/h (2 Bft) W-NW 0.10 h 11 W/m 11.9 C 18.6 C
19.07.2005 22:00 17.7 C 69 % 1023.3 hPa 0.0 l/m 7.3 km/h (2 Bft) W-NW 0.00 h 0 W/m 12.0 C 17.7 C
19.07.2005 23:00 17.0 C 71 % 1023.5 hPa 0.0 l/m 3.3 km/h (1 Bft) W-NW 0.00 h 0 W/m 11.7 C 17.0 C
20.07.2005 00:00 16.6 C 75 % 1024.4 hPa 0.0 l/m 0.4 km/h (0 Bft) S-SO 0.00 h 0 W/m 12.1 C 16.6 C
20.07.2005 01:00 16.3 C 79 % 1024.6 hPa 0.0 l/m 0.1 km/h (0 Bft) S-SO 0.00 h 0 W/m 12.6 C 16.3 C
20.07.2005 02:00 15.9 C 86 % 1024.7 hPa 0.0 l/m 0.0 km/h (0 Bft) N 0.00 h 0 W/m 13.5 C 15.9 C
20.07.2005 03:00 14.9 C 87 % 1024.8 hPa 0.0 l/m 0.0 km/h (0 Bft) N 0.00 h 0 W/m 12.9 C 14.9 C
20.07.2005 04:00 13.7 C 92 % 1025.0 hPa 0.0 l/m 0.0 km/h (0 Bft) N 0.00 h 0 W/m 12.4 C 13.7 C
20.07.2005 05:00 12.8 C 96 % 1025.1 hPa 0.0 l/m 0.0 km/h (0 Bft) N 0.00 h 6 W/m 12.1 C 12.8 C
20.07.2005 06:00 13.6 C 94 % 1024.6 hPa 0.0 l/m 0.0 km/h (0 Bft) N 0.05 h 33 W/m 12.5 C 13.6 C
20.07.2005 07:00 14.5 C 87 % 1024.7 hPa 0.0 l/m 0.0 km/h (0 Bft) N 0.60 h 146 W/m 12.4 C 14.5 C
20.07.2005 08:00 15.7 C 81 % 1024.7 hPa 0.0 l/m 0.0 km/h (0 Bft) N 0.77 h 252 W/m 12.4 C 15.7 C
20.07.2005 09:00 17.7 C 70 % 1024.4 hPa 0.0 l/m 4.8 km/h (1 Bft) W-NW 0.57 h 306 W/m 12.0 C 17.7 C
20.07.2005 10:00 18.8 C 58 % 1024.3 hPa 0.0 l/m 15.4 km/h (3 Bft) W-NW 0.97 h 401 W/m 10.4 C 18.8 C
20.07.2005 11:00 19.9 C 53 % 1023.7 hPa 0.0 l/m 17.1 km/h (3 Bft) W-NW 0.87 h 627 W/m 10.1 C 19.9 C
20.07.2005 12:00 20.9 C 45 % 1023.0 hPa 0.0 l/m 33.2 km/h (5 Bft) W-NW 0.77 h 677 W/m 8.7 C 20.9 C
20.07.2005 13:00 21.7 C 43 % 1022.9 hPa 0.0 l/m 33.7 km/h (5 Bft) W-NW 0.87 h 827 W/m 8.5 C 21.7 C
20.07.2005 14:00 22.4 C 42 % 1022.2 hPa 0.0 l/m 36.4 km/h (5 Bft) NW 1.00 h 830 W/m 8.9 C 22.4 C
20.07.2005 15:00 22.8 C 42 % 1021.7 hPa 0.0 l/m 31.6 km/h (5 Bft) NW 1.00 h 807 W/m 9.3 C 22.8 C
20.07.2005 16:00 23.3 C 44 % 1021.7 hPa 0.0 l/m 36.1 km/h (5 Bft) NW 1.00 h 716 W/m 10.1 C 23.3 C
20.07.2005 17:00 23.4 C 45 % 1021.6 hPa 0.0 l/m 27.6 km/h (4 Bft) W-NW 0.97 h 609 W/m 10.6 C 23.4 C
20.07.2005 18:00 22.1 C 49 % 1021.6 hPa 0.0 l/m 29.0 km/h (5 Bft) W-NW 0.62 h 282 W/m 11.0 C 22.1 C
20.07.2005 19:00 22.3 C 48 % 1020.7 hPa 0.0 l/m 23.8 km/h (4 Bft) W-NW 0.67 h 222 W/m 10.8 C 22.3 C
20.07.2005 20:00 21.7 C 49 % 1020.8 hPa 0.0 l/m 21.4 km/h (4 Bft) W-NW 0.63 h 74 W/m 10.6 C 21.7 C
20.07.2005 21:00 20.3 C 55 % 1021.0 hPa 0.0 l/m 12.0 km/h (2 Bft) W-NW 0.03 h 10 W/m 11.0 C 20.3 C
20.07.2005 22:00 19.8 C 57 % 1021.7 hPa 0.0 l/m 9.3 km/h (2 Bft) W-NW 0.00 h 0 W/m 11.2 C 19.8 C
20.07.2005 23:00 20.0 C 58 % 1021.1 hPa 0.0 l/m 14.3 km/h (3 Bft) W-NW 0.00 h 0 W/m 11.4 C 20.0 C
21.07.2005 00:00 19.8 C 60 % 1021.1 hPa 0.0 l/m 30.3 km/h (5 Bft) W-NW 0.00 h 0 W/m 11.7 C 19.8 C
21.07.2005 01:00 18.0 C 72 % 1021.9 hPa 1.0 l/m 27.5 km/h (4 Bft) W-NW 0.00 h 0 W/m 12.9 C 18.0 C
21.07.2005 02:00 15.2 C 91 % 1022.7 hPa 0.0 l/m 0.7 km/h (0 Bft) W-NW 0.00 h 0 W/m 13.7 C 15.2 C
21.07.2005 03:00 14.5 C 92 % 1022.8 hPa 0.0 l/m 1.8 km/h (1 Bft) O-NO 0.00 h 0 W/m 13.3 C 14.5 C
21.07.2005 04:00 14.2 C 95 % 1022.0 hPa 0.0 l/m 4.6 km/h (1 Bft) O-SO 0.00 h 0 W/m 13.4 C 14.2 C
21.07.2005 05:00 14.8 C 97 % 1021.7 hPa 0.0 l/m 0.6 km/h (0 Bft) SO 0.00 h 5 W/m 14.3 C 14.8 C
21.07.2005 06:00 14.9 C 96 % 1021.7 hPa 0.0 l/m 0.0 km/h (0 Bft) N 0.00 h 33 W/m 14.2 C 14.9 C
21.07.2005 07:00 15.8 C 91 % 1021.6 hPa 0.0 l/m 0.8 km/h (0 Bft) O-SO 0.20 h 105 W/m 14.3 C 15.8 C
21.07.2005 08:00 16.4 C 86 % 1021.5 hPa 0.0 l/m 2.4 km/h (1 Bft) SO 0.10 h 131 W/m 13.9 C 16.4 C
21.07.2005 09:00 17.6 C 79 % 1021.3 hPa 0.0 l/m 3.1 km/h (1 Bft) W-NW 0.33 h 287 W/m 14.0 C 17.6 C
21.07.2005 10:00 18.9 C 69 % 1020.3 hPa 0.0 l/m 13.3 km/h (3 Bft) W-NW 0.57 h 519 W/m 12.9 C 18.9 C
21.07.2005 11:00 19.5 C 63 % 1020.0 hPa 0.0 l/m 22.5 km/h (4 Bft) W-NW 0.47 h 458 W/m 12.2 C 19.5 C
21.07.2005 12:00 21.0 C 55 % 1018.8 hPa 0.0 l/m 26.5 km/h (4 Bft) NW 0.97 h 819 W/m 11.5 C 21.0 C
21.07.2005 13:00 22.0 C 49 % 1017.9 hPa 0.0 l/m 28.7 km/h (4 Bft) W-NW 0.90 h 834 W/m 10.8 C 22.0 C
21.07.2005 14:00 22.9 C 44 % 1017.1 hPa 0.0 l/m 28.8 km/h (4 Bft) W-NW 0.90 h 780 W/m 10.1 C 22.9 C
21.07.2005 15:00 23.7 C 42 % 1016.4 hPa 0.0 l/m 25.3 km/h (4 Bft) NW 0.87 h 723 W/m 9.9 C 23.7 C
21.07.2005 16:00 24.1 C 39 % 1015.8 hPa 0.0 l/m 28.2 km/h (4 Bft) NW 0.83 h 639 W/m 9.4 C 24.1 C
21.07.2005 17:00 24.2 C 41 % 1015.3 hPa 0.0 l/m 29.3 km/h (5 Bft) W-NW 0.97 h 577 W/m 9.9 C 24.2 C
21.07.2005 18:00 23.8 C 43 % 1015.4 hPa 0.0 l/m 28.1 km/h (4 Bft) NW 0.93 h 399 W/m 10.3 C 23.8 C
21.07.2005 19:00 23.1 C 46 % 1015.5 hPa 0.0 l/m 29.7 km/h (5 Bft) NW 1.00 h 272 W/m 10.7 C 23.1 C
21.07.2005 20:00 21.7 C 50 % 1015.6 hPa 0.0 l/m 26.6 km/h (4 Bft) W-NW 1.00 h 97 W/m 10.8 C 21.7 C
21.07.2005 21:00 20.1 C 53 % 1015.8 hPa 0.0 l/m 21.8 km/h (4 Bft) W-NW 0.05 h 10 W/m 10.2 C 20.1 C
21.07.2005 22:00 18.1 C 63 % 1016.1 hPa 0.0 l/m 3.7 km/h (1 Bft) NW 0.00 h 0 W/m 11.0 C 18.1 C
21.07.2005 23:00 16.3 C 72 % 1016.3 hPa 0.0 l/m 2.9 km/h (1 Bft) O-SO 0.00 h 0 W/m 11.3 C 16.3 C
22.07.2005 00:00 15.7 C 75 % 1016.4 hPa 0.0 l/m 0.9 km/h (0 Bft) O-SO 0.00 h 0 W/m 11.4 C 15.7 C
22.07.2005 01:00 16.1 C 76 % 1016.3 hPa 0.0 l/m 1.3 km/h (1 Bft) O-NO 0.00 h 0 W/m 12.0 C 16.1 C
22.07.2005 02:00 15.9 C 78 % 1016.4 hPa 0.0 l/m 2.1 km/h (1 Bft) O 0.00 h 0 W/m 12.0 C 15.9 C
22.07.2005 03:00 15.5 C 81 % 1015.4 hPa 0.0 l/m 4.0 km/h (1 Bft) O-SO 0.00 h 0 W/m 12.2 C 15.5 C
22.07.2005 04:00 14.9 C 82 % 1015.5 hPa 0.0 l/m 1.7 km/h (1 Bft) O-SO 0.00 h 0 W/m 11.7 C 14.9 C
22.07.2005 05:00 14.0 C 88 % 1014.7 hPa 0.0 l/m 2.6 km/h (1 Bft) O-SO 0.00 h 7 W/m 12.0 C 14.0 C
22.07.2005 06:00 13.3 C 91 % 1014.6 hPa 0.0 l/m 3.1 km/h (1 Bft) O-SO 0.03 h 34 W/m 11.9 C 13.3 C
22.07.2005 07:00 14.9 C 84 % 1014.4 hPa 0.0 l/m 0.0 km/h (0 Bft) N 0.97 h 220 W/m 12.2 C 14.9 C
22.07.2005 08:00 17.1 C 73 % 1014.1 hPa 0.0 l/m 5.8 km/h (2 Bft) O-SO 1.00 h 384 W/m 12.1 C 17.1 C
22.07.2005 09:00 18.9 C 59 % 1013.9 hPa 0.0 l/m 12.3 km/h (3 Bft) W-NW 0.87 h 484 W/m 10.8 C 18.9 C
22.07.2005 10:00 19.9 C 54 % 1013.8 hPa 0.0 l/m 20.6 km/h (4 Bft) W-NW 0.90 h 609 W/m 10.2 C 19.9 C
22.07.2005 11:00 20.5 C 51 % 1013.7 hPa 0.0 l/m 23.5 km/h (4 Bft) W-NW 0.70 h 605 W/m 10.0 C 20.5 C
22.07.2005 12:00 20.8 C 51 % 1012.8 hPa 0.0 l/m 25.3 km/h (4 Bft) W-NW 0.98 h 509 W/m 10.3 C 20.8 C
22.07.2005 13:00 21.0 C 50 % 1012.6 hPa 0.0 l/m 25.4 km/h (4 Bft) W-NW 1.00 h 597 W/m 10.2 C 21.0 C
22.07.2005 14:00 21.4 C 48 % 1012.6 hPa 0.0 l/m 23.1 km/h (4 Bft) W-NW 0.53 h 552 W/m 9.8 C 21.4 C
22.07.2005 15:00 21.3 C 47 % 1012.6 hPa 0.0 l/m 25.8 km/h (4 Bft) NW 0.72 h 615 W/m 9.5 C 21.3 C
22.07.2005 16:00 21.4 C 46 % 1012.6 hPa 0.0 l/m 24.5 km/h (4 Bft) NW 0.57 h 412 W/m 9.3 C 21.4 C
22.07.2005 17:00 21.1 C 43 % 1012.6 hPa 0.0 l/m 26.2 km/h (4 Bft) W-NW 0.78 h 415 W/m 8.1 C 21.1 C
22.07.2005 18:00 22.1 C 42 % 1011.8 hPa 0.0 l/m 24.2 km/h (4 Bft) NW 1.00 h 483 W/m 8.6 C 22.1 C
22.07.2005 19:00 21.6 C 44 % 1012.5 hPa 0.0 l/m 26.2 km/h (4 Bft) NW 1.00 h 301 W/m 8.7 C 21.6 C
22.07.2005 20:00 19.5 C 53 % 1012.8 hPa 0.0 l/m 14.1 km/h (3 Bft) W-NW 0.90 h 89 W/m 9.6 C 19.5 C
22.07.2005 21:00 17.5 C 64 % 1013.1 hPa 0.0 l/m 2.3 km/h (1 Bft) W-NW 0.07 h 12 W/m 10.5 C 17.5 C
22.07.2005 22:00 15.7 C 72 % 1013.5 hPa 0.0 l/m 3.0 km/h (1 Bft) O 0.00 h 0 W/m 10.7 C 15.7 C
22.07.2005 23:00 15.1 C 79 % 1013.4 hPa 0.0 l/m 2.6 km/h (1 Bft) O-SO 0.00 h 0 W/m 11.5 C 15.1 C
23.07.2005 00:00 14.1 C 85 % 1013.5 hPa 0.0 l/m 0.0 km/h (0 Bft) N 0.00 h 0 W/m 11.6 C 14.1 C
23.07.2005 01:00 13.7 C 89 % 1013.6 hPa 0.0 l/m 0.2 km/h (0 Bft) O-SO 0.00 h 0 W/m 11.9 C 13.7 C
23.07.2005 02:00 13.3 C 92 % 1013.6 hPa 0.0 l/m 0.1 km/h (0 Bft) N 0.00 h 0 W/m 12.0 C 13.3 C
23.07.2005 03:00 13.7 C 87 % 1012.9 hPa 0.0 l/m 0.0 km/h (0 Bft) N 0.00 h 0 W/m 11.5 C 13.7 C
23.07.2005 04:00 12.0 C 93 % 1012.7 hPa 0.0 l/m 0.0 km/h (0 Bft) N 0.00 h 0 W/m 10.8 C 12.0 C
23.07.2005 05:00 11.0 C 96 % 1012.9 hPa 0.0 l/m 2.9 km/h (1 Bft) NO 0.00 h 0 W/m 10.4 C 11.0 C
23.07.2005 06:00 11.9 C 99 % 1012.8 hPa 0.0 l/m 0.0 km/h (0 Bft) N 0.27 h 33 W/m 11.7 C 11.9 C
23.07.2005 07:00 13.1 C 89 % 1012.6 hPa 0.0 l/m 0.0 km/h (0 Bft) N 0.57 h 129 W/m 11.4 C 13.1 C
23.07.2005 08:00 14.3 C 84 % 1012.4 hPa 0.0 l/m 0.0 km/h (0 Bft) N 0.90 h 297 W/m 11.5 C 14.3 C
23.07.2005 09:00 16.3 C 76 % 1012.0 hPa 0.0 l/m 2.0 km/h (1 Bft) O-SO 0.90 h 461 W/m 12.1 C 16.3 C
23.07.2005 10:00 18.9 C 60 % 1010.9 hPa 0.0 l/m 11.6 km/h (2 Bft) W-NW 1.00 h 587 W/m 10.9 C 18.9 C
23.07.2005 11:00 20.0 C 54 % 1010.7 hPa 0.0 l/m 12.4 km/h (3 Bft) W-NW 1.00 h 627 W/m 10.4 C 20.0 C
23.07.2005 12:00 21.1 C 51 % 1010.5 hPa 0.0 l/m 14.0 km/h (3 Bft) W-NW 1.00 h 663 W/m 10.4 C 21.1 C
23.07.2005 13:00 22.0 C 49 % 1010.4 hPa 0.0 l/m 14.7 km/h (3 Bft) W-NW 1.00 h 712 W/m 10.8 C 22.0 C
23.07.2005 14:00 22.7 C 45 % 1010.3 hPa 0.0 l/m 20.4 km/h (4 Bft) W-NW 1.00 h 697 W/m 10.0 C 22.7 C
23.07.2005 15:00 22.7 C 44 % 1010.3 hPa 0.0 l/m 21.1 km/h (4 Bft) W-NW 1.00 h 499 W/m 9.8 C 22.7 C
23.07.2005 16:00 22.7 C 44 % 1010.3 hPa 0.0 l/m 17.2 km/h (3 Bft) W-NW 0.77 h 386 W/m 9.7 C 22.7 C
23.07.2005 17:00 23.6 C 42 % 1009.6 hPa 0.0 l/m 19.0 km/h (3 Bft) W-NW 1.00 h 486 W/m 9.8 C 23.6 C
23.07.2005 18:00 23.5 C 42 % 1009.2 hPa 0.0 l/m 15.9 km/h (3 Bft) W-NW 0.90 h 311 W/m 10.0 C 23.5 C
23.07.2005 19:00 23.1 C 44 % 1009.2 hPa 0.0 l/m 8.9 km/h (2 Bft) W-NW 1.00 h 229 W/m 10.2 C 23.1 C
23.07.2005 20:00 20.6 C 53 % 1009.5 hPa 0.0 l/m 1.2 km/h (1 Bft) W-NW 0.10 h 33 W/m 10.7 C 20.6 C
23.07.2005 21:00 17.8 C 67 % 1010.0 hPa 0.0 l/m 5.9 km/h (2 Bft) O-SO 0.03 h 7 W/m 11.5 C 17.8 C
23.07.2005 22:00 16.7 C 75 % 1011.1 hPa 0.0 l/m 5.1 km/h (1 Bft) O-SO 0.00 h 0 W/m 12.3 C 16.7 C
23.07.2005 23:00 16.1 C 78 % 1011.2 hPa 0.0 l/m 4.6 km/h (1 Bft) O-SO 0.00 h 0 W/m 12.2 C 16.1 C
24.07.2005 00:00 15.6 C 83 % 1011.2 hPa 0.0 l/m 0.5 km/h (0 Bft) O-SO 0.00 h 0 W/m 12.8 C 15.6 C
24.07.2005 01:00 15.7 C 84 % 1011.2 hPa 0.0 l/m 2.2 km/h (1 Bft) O-SO 0.00 h 0 W/m 13.0 C 15.7 C
24.07.2005 02:00 15.9 C 83 % 1011.2 hPa 0.0 l/m 2.8 km/h (1 Bft) O-SO 0.00 h 0 W/m 12.9 C 15.9 C
24.07.2005 03:00 15.5 C 85 % 1010.3 hPa 0.0 l/m 1.4 km/h (1 Bft) O-SO 0.00 h 0 W/m 12.9 C 15.5 C
24.07.2005 04:00 14.9 C 90 % 1010.3 hPa 0.0 l/m 1.6 km/h (1 Bft) O-SO 0.00 h 0 W/m 13.2 C 14.9 C
24.07.2005 05:00 14.9 C 90 % 1010.5 hPa 0.0 l/m 0.1 km/h (0 Bft) O-SO 0.00 h 0 W/m 13.3 C 14.9 C
24.07.2005 06:00 15.0 C 91 % 1011.2 hPa 0.0 l/m 0.0 km/h (0 Bft) N 0.00 h 8 W/m 13.6 C 15.0 C
24.07.2005 07:00 15.6 C 89 % 1010.8 hPa 0.0 l/m 0.0 km/h (0 Bft) N 0.00 h 49 W/m 13.8 C 15.6 C
24.07.2005 08:00 16.3 C 86 % 1010.8 hPa 0.0 l/m 0.9 km/h (0 Bft) O-SO 0.00 h 58 W/m 13.9 C 16.3 C
24.07.2005 09:00 16.8 C 81 % 1010.9 hPa 0.0 l/m 1.1 km/h (0 Bft) W-NW 0.00 h 88 W/m 13.6 C 16.8 C
24.07.2005 10:00 17.4 C 81 % 1011.0 hPa 0.0 l/m 0.1 km/h (0 Bft) N 0.17 h 208 W/m 14.0 C 17.4 C
24.07.2005 11:00 19.6 C 70 % 1010.6 hPa 0.0 l/m 2.1 km/h (1 Bft) O-SO 1.00 h 609 W/m 13.9 C 19.6 C
24.07.2005 12:00 22.0 C 57 % 1009.4 hPa 0.0 l/m 4.3 km/h (1 Bft) O 0.93 h 540 W/m 12.9 C 22.0 C
24.07.2005 13:00 23.3 C 49 % 1009.2 hPa 0.0 l/m 4.9 km/h (1 Bft) O-SO 1.00 h 597 W/m 12.1 C 23.3 C
24.07.2005 14:00 23.5 C 49 % 1009.2 hPa 0.0 l/m 6.5 km/h (2 Bft) W-NW 0.17 h 366 W/m 12.1 C 23.5 C
24.07.2005 15:00 22.6 C 55 % 1009.3 hPa 0.0 l/m 2.0 km/h (1 Bft) O-SO 0.00 h 147 W/m 13.0 C 22.6 C
24.07.2005 16:00 20.7 C 77 % 1009.5 hPa 0.6 l/m 2.9 km/h (1 Bft) O-SO 0.30 h 220 W/m 16.5 C 20.7 C
24.07.2005 17:00 21.1 C 78 % 1009.2 hPa 0.0 l/m 1.1 km/h (0 Bft) O-SO 0.13 h 172 W/m 17.0 C 21.1 C
24.07.2005 18:00 20.7 C 79 % 1008.8 hPa 0.0 l/m 1.2 km/h (1 Bft) O-SO 0.00 h 93 W/m 16.9 C 20.7 C
24.07.2005 19:00 20.6 C 79 % 1008.5 hPa 0.0 l/m 2.4 km/h (1 Bft) O-SO 0.00 h 67 W/m 16.8 C 20.6 C
24.07.2005 20:00 19.8 C 83 % 1009.6 hPa 0.3 l/m 0.4 km/h (0 Bft) O-SO 0.30 h 20 W/m 16.9 C 19.8 C
24.07.2005 21:00 18.6 C 94 % 1009.8 hPa 0.0 l/m 3.0 km/h (1 Bft) O-SO 0.00 h 8 W/m 17.6 C 18.6 C
24.07.2005 22:00 18.1 C 98 % 1010.7 hPa 1.6 l/m 0.7 km/h (0 Bft) O-SO 0.00 h 0 W/m 17.7 C 18.1 C
24.07.2005 23:00 17.5 C 99 % 1010.0 hPa 1.0 l/m 7.2 km/h (2 Bft) O-SO 0.00 h 0 W/m 17.3 C 17.5 C
Min-Datum _ 23.07.05 21.07.05 18.07.05 - 18.07.05 - - - 22.07.05 23.07.05
_ Min-Zeit 05:40 16:25 13:45 - 00:07 - - - 17:37 05:40
Minimum _ 10.7 C 37 % 1007.5 hPa - 0.0 km/h (0 Bft) - - - 7.6 C 10.7 C
Max-Datum _ 18.07.05 19.07.05 20.07.05 19.07.05 20.07.05 - 20.07.05 22.07.05 18.07.05 18.07.05
_ Max-Zeit 13:45 02:41 05:29 02:45 14:36 - 06:02 13:37 14:59 13:45
Maximum _ 28.5 C 100 % 1025.1 hPa 14.6 l/m 53.4 km/h
NW (7 Bft)
- 0.05 h 1014 W/m 21.7 C 28.5 C
Durchschnitt _ 18.7 C 71 % 1015.2 hPa #31.5 l/m 11.0 km/h (2 Bft) W-NW #66:18 h 340 W/m 12.8 C 18.7 C

Durchschnitt Minimum Temp.18.1 C
Durchschnitt Maximum Temp.19.3 C
© Kaiko 2005